sensor_id;sensor_type;location;lat;lon;timestamp;temperature;humidity
56761;DHT22;42633;44.494;11.356;2022-07-10T00:01:12;23.40;60.30
56761;DHT22;42633;44.494;11.356;2022-07-10T00:04:17;23.40;60.40
56761;DHT22;42633;44.494;11.356;2022-07-10T00:07:22;23.40;60.40
56761;DHT22;42633;44.494;11.356;2022-07-10T00:10:26;23.40;60.60
56761;DHT22;42633;44.494;11.356;2022-07-10T00:13:32;23.40;60.60
56761;DHT22;42633;44.494;11.356;2022-07-10T00:16:36;23.40;60.30
56761;DHT22;42633;44.494;11.356;2022-07-10T00:19:40;23.40;60.30
56761;DHT22;42633;44.494;11.356;2022-07-10T00:22:44;23.30;60.20
56761;DHT22;42633;44.494;11.356;2022-07-10T00:25:48;23.40;60.20
56761;DHT22;42633;44.494;11.356;2022-07-10T00:28:52;23.30;60.20
56761;DHT22;42633;44.494;11.356;2022-07-10T00:31:57;23.30;60.30
56761;DHT22;42633;44.494;11.356;2022-07-10T00:35:01;23.30;60.20
56761;DHT22;42633;44.494;11.356;2022-07-10T00:38:06;23.20;59.90
56761;DHT22;42633;44.494;11.356;2022-07-10T00:41:10;23.20;60.00
56761;DHT22;42633;44.494;11.356;2022-07-10T00:44:14;23.00;60.20
56761;DHT22;42633;44.494;11.356;2022-07-10T00:47:18;23.00;60.50
56761;DHT22;42633;44.494;11.356;2022-07-10T00:50:23;22.90;60.50
56761;DHT22;42633;44.494;11.356;2022-07-10T00:53:27;22.90;60.60
56761;DHT22;42633;44.494;11.356;2022-07-10T00:56:32;22.80;60.40
56761;DHT22;42633;44.494;11.356;2022-07-10T00:59:36;22.80;60.20
56761;DHT22;42633;44.494;11.356;2022-07-10T01:02:43;22.90;60.30
56761;DHT22;42633;44.494;11.356;2022-07-10T01:05:48;22.80;60.10
56761;DHT22;42633;44.494;11.356;2022-07-10T01:08:52;22.80;60.10
56761;DHT22;42633;44.494;11.356;2022-07-10T01:11:56;22.80;60.20
56761;DHT22;42633;44.494;11.356;2022-07-10T01:15:01;22.70;60.20
56761;DHT22;42633;44.494;11.356;2022-07-10T01:18:05;22.70;60.30
56761;DHT22;42633;44.494;11.356;2022-07-10T01:21:29;22.70;60.10
56761;DHT22;42633;44.494;11.356;2022-07-10T01:24:33;22.60;60.00
56761;DHT22;42633;44.494;11.356;2022-07-10T01:27:38;22.70;60.60
56761;DHT22;42633;44.494;11.356;2022-07-10T01:30:42;22.70;60.20
56761;DHT22;42633;44.494;11.356;2022-07-10T01:33:47;22.70;60.10
56761;DHT22;42633;44.494;11.356;2022-07-10T01:36:51;22.70;60.00
56761;DHT22;42633;44.494;11.356;2022-07-10T01:39:56;22.70;60.00
56761;DHT22;42633;44.494;11.356;2022-07-10T01:43:00;22.70;60.10
56761;DHT22;42633;44.494;11.356;2022-07-10T01:46:04;22.70;60.20
56761;DHT22;42633;44.494;11.356;2022-07-10T01:49:08;22.80;60.20
56761;DHT22;42633;44.494;11.356;2022-07-10T01:52:12;22.70;60.20
56761;DHT22;42633;44.494;11.356;2022-07-10T01:55:16;22.70;60.90
56761;DHT22;42633;44.494;11.356;2022-07-10T01:58:20;22.70;60.20
56761;DHT22;42633;44.494;11.356;2022-07-10T02:01:24;22.70;60.20
56761;DHT22;42633;44.494;11.356;2022-07-10T02:04:28;22.70;59.80
56761;DHT22;42633;44.494;11.356;2022-07-10T02:07:47;22.60;59.80
56761;DHT22;42633;44.494;11.356;2022-07-10T02:10:52;22.60;59.90
56761;DHT22;42633;44.494;11.356;2022-07-10T02:13:57;22.60;60.00
56761;DHT22;42633;44.494;11.356;2022-07-10T02:17:02;22.50;60.20
56761;DHT22;42633;44.494;11.356;2022-07-10T02:20:06;22.50;60.40
56761;DHT22;42633;44.494;11.356;2022-07-10T02:23:10;22.50;60.60
56761;DHT22;42633;44.494;11.356;2022-07-10T02:26:14;22.40;60.70
56761;DHT22;42633;44.494;11.356;2022-07-10T02:29:19;22.30;60.50
56761;DHT22;42633;44.494;11.356;2022-07-10T02:32:23;22.30;60.50
56761;DHT22;42633;44.494;11.356;2022-07-10T02:35:27;22.30;60.60
56761;DHT22;42633;44.494;11.356;2022-07-10T02:38:31;22.30;60.90
56761;DHT22;42633;44.494;11.356;2022-07-10T02:41:35;22.30;61.00
56761;DHT22;42633;44.494;11.356;2022-07-10T02:44:42;22.20;61.70
56761;DHT22;42633;44.494;11.356;2022-07-10T02:47:46;22.10;61.20
56761;DHT22;42633;44.494;11.356;2022-07-10T02:50:49;22.10;61.20
56761;DHT22;42633;44.494;11.356;2022-07-10T02:53:53;22.10;61.40
56761;DHT22;42633;44.494;11.356;2022-07-10T02:56:57;22.10;61.40
56761;DHT22;42633;44.494;11.356;2022-07-10T03:00:01;22.10;61.50
56761;DHT22;42633;44.494;11.356;2022-07-10T03:03:05;22.10;61.30
56761;DHT22;42633;44.494;11.356;2022-07-10T03:06:10;22.20;61.40
56761;DHT22;42633;44.494;11.356;2022-07-10T03:09:14;22.10;61.70
56761;DHT22;42633;44.494;11.356;2022-07-10T03:12:18;22.10;61.90
56761;DHT22;42633;44.494;11.356;2022-07-10T03:15:22;22.10;62.60
56761;DHT22;42633;44.494;11.356;2022-07-10T03:18:26;22.10;62.50
56761;DHT22;42633;44.494;11.356;2022-07-10T03:21:30;22.10;62.00
56761;DHT22;42633;44.494;11.356;2022-07-10T03:24:34;22.10;61.90
56761;DHT22;42633;44.494;11.356;2022-07-10T03:27:39;22.10;61.70
56761;DHT22;42633;44.494;11.356;2022-07-10T03:30:43;22.00;61.90
56761;DHT22;42633;44.494;11.356;2022-07-10T03:33:47;22.00;61.90
56761;DHT22;42633;44.494;11.356;2022-07-10T03:36:51;22.00;61.70
56761;DHT22;42633;44.494;11.356;2022-07-10T03:39:56;22.00;61.60
56761;DHT22;42633;44.494;11.356;2022-07-10T03:42:59;22.00;62.30
56761;DHT22;42633;44.494;11.356;2022-07-10T03:46:04;22.00;61.70
56761;DHT22;42633;44.494;11.356;2022-07-10T03:49:08;22.00;61.50
56761;DHT22;42633;44.494;11.356;2022-07-10T03:52:12;22.00;61.40
56761;DHT22;42633;44.494;11.356;2022-07-10T03:55:16;22.00;61.50
56761;DHT22;42633;44.494;11.356;2022-07-10T03:58:21;22.00;62.10
56761;DHT22;42633;44.494;11.356;2022-07-10T04:01:25;22.00;62.40
56761;DHT22;42633;44.494;11.356;2022-07-10T04:04:29;22.00;62.10
56761;DHT22;42633;44.494;11.356;2022-07-10T04:07:34;22.10;62.00
56761;DHT22;42633;44.494;11.356;2022-07-10T04:10:38;22.10;61.80
56761;DHT22;42633;44.494;11.356;2022-07-10T04:13:43;22.10;61.20
56761;DHT22;42633;44.494;11.356;2022-07-10T04:16:48;22.20;60.90
56761;DHT22;42633;44.494;11.356;2022-07-10T04:19:52;22.20;60.60
56761;DHT22;42633;44.494;11.356;2022-07-10T04:22:56;22.20;60.30
56761;DHT22;42633;44.494;11.356;2022-07-10T04:26:01;22.20;60.30
56761;DHT22;42633;44.494;11.356;2022-07-10T04:29:05;22.20;60.30
56761;DHT22;42633;44.494;11.356;2022-07-10T04:32:09;22.20;60.20
56761;DHT22;42633;44.494;11.356;2022-07-10T04:35:13;22.30;60.00
56761;DHT22;42633;44.494;11.356;2022-07-10T04:38:17;22.30;60.00
56761;DHT22;42633;44.494;11.356;2022-07-10T04:41:21;22.20;60.20
56761;DHT22;42633;44.494;11.356;2022-07-10T04:44:25;22.20;60.50
56761;DHT22;42633;44.494;11.356;2022-07-10T04:47:29;22.20;60.70
56761;DHT22;42633;44.494;11.356;2022-07-10T04:50:33;22.20;60.70
56761;DHT22;42633;44.494;11.356;2022-07-10T04:53:37;22.20;60.80
56761;DHT22;42633;44.494;11.356;2022-07-10T04:56:41;22.20;60.70
56761;DHT22;42633;44.494;11.356;2022-07-10T04:59:45;22.30;60.80
56761;DHT22;42633;44.494;11.356;2022-07-10T05:02:49;22.30;60.50
56761;DHT22;42633;44.494;11.356;2022-07-10T05:05:53;22.40;60.60
56761;DHT22;42633;44.494;11.356;2022-07-10T05:08:57;22.40;60.50
56761;DHT22;42633;44.494;11.356;2022-07-10T05:12:01;22.50;60.50
56761;DHT22;42633;44.494;11.356;2022-07-10T05:15:06;22.60;61.70
56761;DHT22;42633;44.494;11.356;2022-07-10T05:18:10;22.70;62.30
56761;DHT22;42633;44.494;11.356;2022-07-10T05:21:14;23.20;60.80
56761;DHT22;42633;44.494;11.356;2022-07-10T05:24:18;24.10;59.00
56761;DHT22;42633;44.494;11.356;2022-07-10T05:27:22;25.00;57.00
56761;DHT22;42633;44.494;11.356;2022-07-10T05:30:26;25.60;56.00
56761;DHT22;42633;44.494;11.356;2022-07-10T05:33:30;26.10;55.10
56761;DHT22;42633;44.494;11.356;2022-07-10T05:36:36;26.30;54.80
56761;DHT22;42633;44.494;11.356;2022-07-10T05:39:40;26.40;54.60
56761;DHT22;42633;44.494;11.356;2022-07-10T05:42:44;26.60;54.30
56761;DHT22;42633;44.494;11.356;2022-07-10T05:45:48;26.70;54.10
56761;DHT22;42633;44.494;11.356;2022-07-10T05:48:52;26.80;54.00
56761;DHT22;42633;44.494;11.356;2022-07-10T05:51:57;26.90;54.20
56761;DHT22;42633;44.494;11.356;2022-07-10T05:55:01;26.80;54.50
56761;DHT22;42633;44.494;11.356;2022-07-10T05:58:05;26.80;54.70
56761;DHT22;42633;44.494;11.356;2022-07-10T06:01:09;26.70;55.00
56761;DHT22;42633;44.494;11.356;2022-07-10T06:04:13;26.60;55.10
56761;DHT22;42633;44.494;11.356;2022-07-10T06:07:17;26.60;55.40
56761;DHT22;42633;44.494;11.356;2022-07-10T06:10:21;26.50;55.80
56761;DHT22;42633;44.494;11.356;2022-07-10T06:13:25;26.50;56.30
56761;DHT22;42633;44.494;11.356;2022-07-10T06:16:29;26.40;56.50
56761;DHT22;42633;44.494;11.356;2022-07-10T06:19:33;26.40;56.90
56761;DHT22;42633;44.494;11.356;2022-07-10T06:22:37;26.30;57.00
56761;DHT22;42633;44.494;11.356;2022-07-10T06:25:41;26.10;57.00
56761;DHT22;42633;44.494;11.356;2022-07-10T06:28:45;26.00;57.60
56761;DHT22;42633;44.494;11.356;2022-07-10T06:31:49;25.80;57.50
56761;DHT22;42633;44.494;11.356;2022-07-10T06:34:54;25.60;57.70
56761;DHT22;42633;44.494;11.356;2022-07-10T06:37:58;25.50;58.00
56761;DHT22;42633;44.494;11.356;2022-07-10T06:41:02;25.40;58.10
56761;DHT22;42633;44.494;11.356;2022-07-10T06:44:06;25.40;58.50
56761;DHT22;42633;44.494;11.356;2022-07-10T06:47:12;25.30;58.50
56761;DHT22;42633;44.494;11.356;2022-07-10T06:50:36;25.30;58.50
56761;DHT22;42633;44.494;11.356;2022-07-10T06:53:40;25.20;58.80
56761;DHT22;42633;44.494;11.356;2022-07-10T06:56:44;25.20;59.10
56761;DHT22;42633;44.494;11.356;2022-07-10T06:59:48;25.30;58.80
56761;DHT22;42633;44.494;11.356;2022-07-10T07:02:52;25.40;58.10
56761;DHT22;42633;44.494;11.356;2022-07-10T07:05:56;25.50;58.20
56761;DHT22;42633;44.494;11.356;2022-07-10T07:09:00;25.50;57.60
56761;DHT22;42633;44.494;11.356;2022-07-10T07:12:04;25.60;57.10
56761;DHT22;42633;44.494;11.356;2022-07-10T07:15:08;25.70;57.30
56761;DHT22;42633;44.494;11.356;2022-07-10T07:18:13;25.80;56.40
56761;DHT22;42633;44.494;11.356;2022-07-10T07:21:20;25.70;56.90
56761;DHT22;42633;44.494;11.356;2022-07-10T07:24:42;25.80;56.80
56761;DHT22;42633;44.494;11.356;2022-07-10T07:27:46;25.90;56.50
56761;DHT22;42633;44.494;11.356;2022-07-10T07:30:50;26.00;56.70
56761;DHT22;42633;44.494;11.356;2022-07-10T07:33:55;26.10;55.90
56761;DHT22;42633;44.494;11.356;2022-07-10T07:36:59;26.30;54.20
56761;DHT22;42633;44.494;11.356;2022-07-10T07:40:08;26.50;53.30
56761;DHT22;42633;44.494;11.356;2022-07-10T07:43:12;26.60;53.40
56761;DHT22;42633;44.494;11.356;2022-07-10T07:46:16;26.70;52.60
56761;DHT22;42633;44.494;11.356;2022-07-10T07:49:20;26.90;51.80
56761;DHT22;42633;44.494;11.356;2022-07-10T07:52:24;27.00;52.00
56761;DHT22;42633;44.494;11.356;2022-07-10T07:55:30;27.10;51.20
56761;DHT22;42633;44.494;11.356;2022-07-10T07:58:34;27.10;50.70
56761;DHT22;42633;44.494;11.356;2022-07-10T08:01:38;27.20;49.80
56761;DHT22;42633;44.494;11.356;2022-07-10T08:04:43;27.30;51.70
56761;DHT22;42633;44.494;11.356;2022-07-10T08:07:50;27.40;49.70
56761;DHT22;42633;44.494;11.356;2022-07-10T08:10:54;27.50;49.20
56761;DHT22;42633;44.494;11.356;2022-07-10T08:13:58;27.60;49.50
56761;DHT22;42633;44.494;11.356;2022-07-10T08:17:03;27.70;48.20
56761;DHT22;42633;44.494;11.356;2022-07-10T08:20:11;27.80;48.30
56761;DHT22;42633;44.494;11.356;2022-07-10T08:23:15;27.90;48.60
56761;DHT22;42633;44.494;11.356;2022-07-10T08:26:27;27.90;47.80
56761;DHT22;42633;44.494;11.356;2022-07-10T08:29:31;28.00;46.80
56761;DHT22;42633;44.494;11.356;2022-07-10T08:32:36;28.10;47.70
56761;DHT22;42633;44.494;11.356;2022-07-10T08:35:40;28.20;47.60
56761;DHT22;42633;44.494;11.356;2022-07-10T08:38:50;28.30;46.90
56761;DHT22;42633;44.494;11.356;2022-07-10T08:41:54;28.40;46.70
56761;DHT22;42633;44.494;11.356;2022-07-10T08:45:01;28.50;46.40
56761;DHT22;42633;44.494;11.356;2022-07-10T08:48:07;28.60;46.00
56761;DHT22;42633;44.494;11.356;2022-07-10T08:51:12;28.70;45.70
56761;DHT22;42633;44.494;11.356;2022-07-10T08:54:20;28.80;45.80
56761;DHT22;42633;44.494;11.356;2022-07-10T08:57:26;28.90;45.20
56761;DHT22;42633;44.494;11.356;2022-07-10T09:00:30;28.90;47.30
56761;DHT22;42633;44.494;11.356;2022-07-10T09:03:35;29.00;45.10
56761;DHT22;42633;44.494;11.356;2022-07-10T09:06:40;29.00;45.60
56761;DHT22;42633;44.494;11.356;2022-07-10T09:09:52;29.20;45.50
56761;DHT22;42633;44.494;11.356;2022-07-10T09:13:00;29.20;44.90
56761;DHT22;42633;44.494;11.356;2022-07-10T09:16:05;29.40;44.60
56761;DHT22;42633;44.494;11.356;2022-07-10T09:19:19;29.50;44.30
56761;DHT22;42633;44.494;11.356;2022-07-10T09:22:23;29.60;44.60
56761;DHT22;42633;44.494;11.356;2022-07-10T09:25:34;29.80;44.50
56761;DHT22;42633;44.494;11.356;2022-07-10T09:28:38;29.90;44.50
56761;DHT22;42633;44.494;11.356;2022-07-10T09:32:08;29.80;46.10
56761;DHT22;42633;44.494;11.356;2022-07-10T09:35:13;29.90;44.20
56761;DHT22;42633;44.494;11.356;2022-07-10T09:41:52;30.00;43.70
56761;DHT22;42633;44.494;11.356;2022-07-10T09:48:23;30.20;43.70
56761;DHT22;42633;44.494;11.356;2022-07-10T09:51:30;30.20;43.70
56761;DHT22;42633;44.494;11.356;2022-07-10T09:54:36;30.40;44.70
56761;DHT22;42633;44.494;11.356;2022-07-10T09:57:40;30.40;44.30
56761;DHT22;42633;44.494;11.356;2022-07-10T10:00:47;30.50;43.90
56761;DHT22;42633;44.494;11.356;2022-07-10T10:03:53;30.50;43.00
56761;DHT22;42633;44.494;11.356;2022-07-10T10:06:58;30.50;43.50
56761;DHT22;42633;44.494;11.356;2022-07-10T10:10:05;30.60;42.90
56761;DHT22;42633;44.494;11.356;2022-07-10T10:13:11;30.70;42.50
56761;DHT22;42633;44.494;11.356;2022-07-10T10:16:16;30.70;42.40
56761;DHT22;42633;44.494;11.356;2022-07-10T10:19:23;30.80;42.80
56761;DHT22;42633;44.494;11.356;2022-07-10T10:22:46;30.90;43.80
56761;DHT22;42633;44.494;11.356;2022-07-10T10:25:56;31.00;42.70
56761;DHT22;42633;44.494;11.356;2022-07-10T10:29:02;31.10;44.70
56761;DHT22;42633;44.494;11.356;2022-07-10T10:32:07;31.20;44.60
56761;DHT22;42633;44.494;11.356;2022-07-10T10:35:42;31.30;43.50
56761;DHT22;42633;44.494;11.356;2022-07-10T10:41:59;31.50;43.00
56761;DHT22;42633;44.494;11.356;2022-07-10T10:45:25;31.50;43.20
56761;DHT22;42633;44.494;11.356;2022-07-10T10:48:31;31.60;42.80
56761;DHT22;42633;44.494;11.356;2022-07-10T10:52:10;31.70;43.10
56761;DHT22;42633;44.494;11.356;2022-07-10T10:55:14;31.80;44.00
56761;DHT22;42633;44.494;11.356;2022-07-10T10:58:18;31.70;43.60
56761;DHT22;42633;44.494;11.356;2022-07-10T11:01:28;31.60;42.90
56761;DHT22;42633;44.494;11.356;2022-07-10T11:04:32;31.60;42.60
56761;DHT22;42633;44.494;11.356;2022-07-10T11:07:56;31.70;42.20
56761;DHT22;42633;44.494;11.356;2022-07-10T11:14:39;31.80;42.40
56761;DHT22;42633;44.494;11.356;2022-07-10T11:17:46;31.80;42.30
56761;DHT22;42633;44.494;11.356;2022-07-10T11:20:51;31.90;42.70
56761;DHT22;42633;44.494;11.356;2022-07-10T11:24:06;31.90;42.80
56761;DHT22;42633;44.494;11.356;2022-07-10T11:27:42;31.90;42.50
56761;DHT22;42633;44.494;11.356;2022-07-10T11:30:54;31.90;42.70
56761;DHT22;42633;44.494;11.356;2022-07-10T11:33:58;31.90;42.80
56761;DHT22;42633;44.494;11.356;2022-07-10T11:37:03;32.00;43.40
56761;DHT22;42633;44.494;11.356;2022-07-10T11:40:17;32.20;42.50
56761;DHT22;42633;44.494;11.356;2022-07-10T11:43:23;32.30;42.80
56761;DHT22;42633;44.494;11.356;2022-07-10T11:46:31;32.20;42.80
56761;DHT22;42633;44.494;11.356;2022-07-10T11:49:44;32.20;43.00
56761;DHT22;42633;44.494;11.356;2022-07-10T11:52:48;32.30;43.10
56761;DHT22;42633;44.494;11.356;2022-07-10T11:55:54;32.50;42.50
56761;DHT22;42633;44.494;11.356;2022-07-10T11:59:09;32.60;42.20
56761;DHT22;42633;44.494;11.356;2022-07-10T12:02:22;32.60;42.20
56761;DHT22;42633;44.494;11.356;2022-07-10T12:05:34;32.60;42.60
56761;DHT22;42633;44.494;11.356;2022-07-10T12:08:45;32.70;42.60
56761;DHT22;42633;44.494;11.356;2022-07-10T12:12:04;32.80;42.50
56761;DHT22;42633;44.494;11.356;2022-07-10T12:15:09;32.90;42.40
56761;DHT22;42633;44.494;11.356;2022-07-10T12:18:20;32.90;42.60
56761;DHT22;42633;44.494;11.356;2022-07-10T12:21:24;32.90;42.50
56761;DHT22;42633;44.494;11.356;2022-07-10T12:24:29;32.90;42.30
56761;DHT22;42633;44.494;11.356;2022-07-10T12:27:39;33.00;43.10
56761;DHT22;42633;44.494;11.356;2022-07-10T12:30:47;33.00;42.40
56761;DHT22;42633;44.494;11.356;2022-07-10T12:33:56;33.00;41.70
56761;DHT22;42633;44.494;11.356;2022-07-10T12:37:11;32.80;41.80
56761;DHT22;42633;44.494;11.356;2022-07-10T12:40:32;32.90;42.10
56761;DHT22;42633;44.494;11.356;2022-07-10T12:43:37;32.90;42.40
56761;DHT22;42633;44.494;11.356;2022-07-10T12:46:41;32.90;42.30
56761;DHT22;42633;44.494;11.356;2022-07-10T12:53:11;32.90;41.50
56761;DHT22;42633;44.494;11.356;2022-07-10T12:59:37;33.00;42.20
56761;DHT22;42633;44.494;11.356;2022-07-10T13:02:41;33.10;41.70
56761;DHT22;42633;44.494;11.356;2022-07-10T13:05:45;33.10;42.40
56761;DHT22;42633;44.494;11.356;2022-07-10T13:08:49;33.10;41.90
56761;DHT22;42633;44.494;11.356;2022-07-10T13:11:54;33.20;42.60
56761;DHT22;42633;44.494;11.356;2022-07-10T13:14:58;33.20;41.60
56761;DHT22;42633;44.494;11.356;2022-07-10T13:18:02;33.20;43.00
56761;DHT22;42633;44.494;11.356;2022-07-10T13:21:06;33.20;42.90
56761;DHT22;42633;44.494;11.356;2022-07-10T13:24:10;33.20;41.50
56761;DHT22;42633;44.494;11.356;2022-07-10T13:27:15;33.20;41.90
56761;DHT22;42633;44.494;11.356;2022-07-10T13:30:19;33.20;43.40
56761;DHT22;42633;44.494;11.356;2022-07-10T13:33:24;33.30;42.10
56761;DHT22;42633;44.494;11.356;2022-07-10T13:36:28;33.20;41.40
56761;DHT22;42633;44.494;11.356;2022-07-10T13:39:32;33.30;42.10
56761;DHT22;42633;44.494;11.356;2022-07-10T13:42:36;33.30;41.20
56761;DHT22;42633;44.494;11.356;2022-07-10T13:45:40;33.30;42.40
56761;DHT22;42633;44.494;11.356;2022-07-10T13:48:47;33.30;42.10
56761;DHT22;42633;44.494;11.356;2022-07-10T13:51:50;33.20;41.70
56761;DHT22;42633;44.494;11.356;2022-07-10T13:54:55;33.20;41.20
56761;DHT22;42633;44.494;11.356;2022-07-10T13:57:58;33.20;41.00
56761;DHT22;42633;44.494;11.356;2022-07-10T14:01:03;33.20;41.30
56761;DHT22;42633;44.494;11.356;2022-07-10T14:04:07;33.30;41.00
56761;DHT22;42633;44.494;11.356;2022-07-10T14:07:12;33.40;41.60
56761;DHT22;42633;44.494;11.356;2022-07-10T14:10:16;33.40;40.80
56761;DHT22;42633;44.494;11.356;2022-07-10T14:13:20;33.40;41.50
56761;DHT22;42633;44.494;11.356;2022-07-10T14:16:24;33.30;41.50
56761;DHT22;42633;44.494;11.356;2022-07-10T14:19:28;33.20;42.20
56761;DHT22;42633;44.494;11.356;2022-07-10T14:22:31;33.30;41.80
56761;DHT22;42633;44.494;11.356;2022-07-10T14:25:36;33.30;41.70
56761;DHT22;42633;44.494;11.356;2022-07-10T14:28:40;33.30;41.10
56761;DHT22;42633;44.494;11.356;2022-07-10T14:31:44;33.20;42.70
56761;DHT22;42633;44.494;11.356;2022-07-10T14:35:03;33.20;42.40
56761;DHT22;42633;44.494;11.356;2022-07-10T14:38:07;33.10;42.60
56761;DHT22;42633;44.494;11.356;2022-07-10T14:41:11;33.10;41.60
56761;DHT22;42633;44.494;11.356;2022-07-10T14:44:15;33.00;43.30
56761;DHT22;42633;44.494;11.356;2022-07-10T14:47:19;33.00;42.10
56761;DHT22;42633;44.494;11.356;2022-07-10T14:50:23;33.00;41.40
56761;DHT22;42633;44.494;11.356;2022-07-10T14:53:27;33.00;42.40
56761;DHT22;42633;44.494;11.356;2022-07-10T14:56:31;32.90;41.60
56761;DHT22;42633;44.494;11.356;2022-07-10T14:59:36;32.90;41.00
56761;DHT22;42633;44.494;11.356;2022-07-10T15:02:40;32.90;42.00
56761;DHT22;42633;44.494;11.356;2022-07-10T15:05:44;32.90;41.80
56761;DHT22;42633;44.494;11.356;2022-07-10T15:08:48;32.80;43.10
56761;DHT22;42633;44.494;11.356;2022-07-10T15:11:54;32.80;39.70
56761;DHT22;42633;44.494;11.356;2022-07-10T15:14:59;32.80;37.60
56761;DHT22;42633;44.494;11.356;2022-07-10T15:18:03;32.60;40.30
56761;DHT22;42633;44.494;11.356;2022-07-10T15:21:07;32.60;40.10
56761;DHT22;42633;44.494;11.356;2022-07-10T15:24:12;32.60;40.10
56761;DHT22;42633;44.494;11.356;2022-07-10T15:27:16;32.70;40.60
56761;DHT22;42633;44.494;11.356;2022-07-10T15:30:20;32.60;42.80
56761;DHT22;42633;44.494;11.356;2022-07-10T15:33:24;32.60;41.60
56761;DHT22;42633;44.494;11.356;2022-07-10T15:36:28;32.50;41.30
56761;DHT22;42633;44.494;11.356;2022-07-10T15:39:32;32.60;41.70
56761;DHT22;42633;44.494;11.356;2022-07-10T15:42:44;32.60;39.80
56761;DHT22;42633;44.494;11.356;2022-07-10T15:45:48;32.60;39.60
56761;DHT22;42633;44.494;11.356;2022-07-10T15:48:52;32.70;40.40
56761;DHT22;42633;44.494;11.356;2022-07-10T15:51:57;32.60;39.90
56761;DHT22;42633;44.494;11.356;2022-07-10T15:55:05;32.40;39.70
56761;DHT22;42633;44.494;11.356;2022-07-10T15:58:09;32.40;41.00
56761;DHT22;42633;44.494;11.356;2022-07-10T16:01:14;32.40;40.70
56761;DHT22;42633;44.494;11.356;2022-07-10T16:04:19;32.40;39.50
56761;DHT22;42633;44.494;11.356;2022-07-10T16:07:24;32.40;41.90
56761;DHT22;42633;44.494;11.356;2022-07-10T16:10:28;32.20;38.90
56761;DHT22;42633;44.494;11.356;2022-07-10T16:13:33;32.20;40.20
56761;DHT22;42633;44.494;11.356;2022-07-10T16:16:37;32.20;41.00
56761;DHT22;42633;44.494;11.356;2022-07-10T16:19:42;32.20;40.40
56761;DHT22;42633;44.494;11.356;2022-07-10T16:22:46;32.40;41.60
56761;DHT22;42633;44.494;11.356;2022-07-10T16:25:53;33.80;40.70
56761;DHT22;42633;44.494;11.356;2022-07-10T16:29:08;35.80;39.00
56761;DHT22;42633;44.494;11.356;2022-07-10T16:32:12;37.50;37.70
56761;DHT22;42633;44.494;11.356;2022-07-10T16:35:16;38.60;35.40
56761;DHT22;42633;44.494;11.356;2022-07-10T16:38:25;39.10;34.90
56761;DHT22;42633;44.494;11.356;2022-07-10T16:41:29;39.40;35.70
56761;DHT22;42633;44.494;11.356;2022-07-10T16:44:33;40.20;35.20
56761;DHT22;42633;44.494;11.356;2022-07-10T16:47:38;40.50;35.40
56761;DHT22;42633;44.494;11.356;2022-07-10T16:50:42;40.60;35.00
56761;DHT22;42633;44.494;11.356;2022-07-10T16:53:46;40.00;35.00
56761;DHT22;42633;44.494;11.356;2022-07-10T16:56:50;40.30;35.90
56761;DHT22;42633;44.494;11.356;2022-07-10T16:59:54;39.80;35.00
56761;DHT22;42633;44.494;11.356;2022-07-10T17:02:58;39.70;35.40
56761;DHT22;42633;44.494;11.356;2022-07-10T17:06:02;40.10;35.50
56761;DHT22;42633;44.494;11.356;2022-07-10T17:09:06;40.50;36.00
56761;DHT22;42633;44.494;11.356;2022-07-10T17:12:10;40.50;35.30
56761;DHT22;42633;44.494;11.356;2022-07-10T17:15:14;39.90;35.40
56761;DHT22;42633;44.494;11.356;2022-07-10T17:18:18;39.10;35.60
56761;DHT22;42633;44.494;11.356;2022-07-10T17:21:22;38.30;36.70
56761;DHT22;42633;44.494;11.356;2022-07-10T17:24:27;36.90;38.30
56761;DHT22;42633;44.494;11.356;2022-07-10T17:27:32;35.80;39.10
56761;DHT22;42633;44.494;11.356;2022-07-10T17:30:37;34.90;39.30
56761;DHT22;42633;44.494;11.356;2022-07-10T17:33:41;34.30;40.40
56761;DHT22;42633;44.494;11.356;2022-07-10T17:36:45;33.70;40.30
56761;DHT22;42633;44.494;11.356;2022-07-10T17:39:49;33.40;40.90
56761;DHT22;42633;44.494;11.356;2022-07-10T17:42:58;33.10;40.50
56761;DHT22;42633;44.494;11.356;2022-07-10T17:46:02;32.90;40.20
56761;DHT22;42633;44.494;11.356;2022-07-10T17:49:06;32.70;43.50
56761;DHT22;42633;44.494;11.356;2022-07-10T17:52:11;32.50;41.40
56761;DHT22;42633;44.494;11.356;2022-07-10T17:55:16;32.30;46.60
56761;DHT22;42633;44.494;11.356;2022-07-10T17:58:20;32.10;48.90
56761;DHT22;42633;44.494;11.356;2022-07-10T18:01:24;31.90;50.90
56761;DHT22;42633;44.494;11.356;2022-07-10T18:04:28;31.80;52.30
56761;DHT22;42633;44.494;11.356;2022-07-10T18:07:33;31.50;52.50
56761;DHT22;42633;44.494;11.356;2022-07-10T18:10:37;31.30;52.70
56761;DHT22;42633;44.494;11.356;2022-07-10T18:13:41;31.20;52.50
56761;DHT22;42633;44.494;11.356;2022-07-10T18:16:45;31.00;52.90
56761;DHT22;42633;44.494;11.356;2022-07-10T18:19:50;30.90;53.50
56761;DHT22;42633;44.494;11.356;2022-07-10T18:22:57;30.90;54.10
56761;DHT22;42633;44.494;11.356;2022-07-10T18:26:04;30.80;54.10
56761;DHT22;42633;44.494;11.356;2022-07-10T18:29:08;30.70;54.20
56761;DHT22;42633;44.494;11.356;2022-07-10T18:32:13;30.60;54.60
56761;DHT22;42633;44.494;11.356;2022-07-10T18:35:17;30.50;54.90
56761;DHT22;42633;44.494;11.356;2022-07-10T18:38:22;30.40;54.60
56761;DHT22;42633;44.494;11.356;2022-07-10T18:41:27;30.30;55.20
56761;DHT22;42633;44.494;11.356;2022-07-10T18:44:31;30.20;55.70
56761;DHT22;42633;44.494;11.356;2022-07-10T18:47:35;30.10;55.80
56761;DHT22;42633;44.494;11.356;2022-07-10T18:50:39;30.10;56.00
56761;DHT22;42633;44.494;11.356;2022-07-10T18:53:44;29.90;56.50
56761;DHT22;42633;44.494;11.356;2022-07-10T18:56:48;29.80;56.50
56761;DHT22;42633;44.494;11.356;2022-07-10T18:59:52;29.70;57.10
56761;DHT22;42633;44.494;11.356;2022-07-10T19:02:56;29.60;56.90
56761;DHT22;42633;44.494;11.356;2022-07-10T19:06:00;29.60;57.30
56761;DHT22;42633;44.494;11.356;2022-07-10T19:09:04;29.50;57.40
56761;DHT22;42633;44.494;11.356;2022-07-10T19:12:09;29.40;57.50
56761;DHT22;42633;44.494;11.356;2022-07-10T19:15:13;29.30;57.60
56761;DHT22;42633;44.494;11.356;2022-07-10T19:18:17;29.20;57.60
56761;DHT22;42633;44.494;11.356;2022-07-10T19:21:22;29.10;57.90
56761;DHT22;42633;44.494;11.356;2022-07-10T19:24:26;29.00;57.50
56761;DHT22;42633;44.494;11.356;2022-07-10T19:27:30;29.00;58.10
56761;DHT22;42633;44.494;11.356;2022-07-10T19:30:35;28.90;57.80
56761;DHT22;42633;44.494;11.356;2022-07-10T19:33:40;28.90;57.70